Time;durP1;ratioP1;P1;durP2;ratioP2;P2;SDS_P1;SDS_P2;PMS_P1;PMS_P2;Temp;Humidity;BMP_temperature;BMP_pressure;BME280_temperature;BME280_humidity;BME280_pressure;Samples;Min_cycle;Max_cycle;Signal;HPM_P1;HPM_P2
2022/10/16 00:00:42;;;;;;;0.50;0.37;;;13.60;99.90;;;;;;5074183;28;20448;-77
2022/10/16 00:03:10;;;;;;;0.60;0.43;;;13.60;99.90;;;;;;5074230;28;20981;-77
2022/10/16 00:05:40;;;;;;;0.50;0.40;;;13.60;99.90;;;;;;5073848;28;20456;-77
2022/10/16 00:08:08;;;;;;;0.73;0.73;;;13.60;99.90;;;;;;5073214;28;20471;-77
2022/10/16 00:10:35;;;;;;;1.17;0.93;;;13.60;99.90;;;;;;5073912;28;20440;-73
2022/10/16 00:13:04;;;;;;;0.50;0.40;;;13.60;99.90;;;;;;5073634;28;20956;-78
2022/10/16 00:15:33;;;;;;;0.80;0.60;;;13.60;99.90;;;;;;5073441;28;20458;-77
2022/10/16 00:18:00;;;;;;;2.97;2.77;;;13.60;99.90;;;;;;5073517;28;20436;-78
2022/10/16 00:20:27;;;;;;;1.00;0.80;;;13.60;99.90;;;;;;5073791;28;20542;-77
2022/10/16 00:22:54;;;;;;;0.50;0.33;;;13.60;99.90;;;;;;5073304;28;21001;-77
2022/10/16 00:25:20;;;;;;;0.50;0.40;;;13.60;99.90;;;;;;5073015;28;20539;-78
2022/10/16 00:27:47;;;;;;;0.50;0.47;;;13.60;99.90;;;;;;5073326;28;20444;-77
2022/10/16 00:30:15;;;;;;;0.50;0.30;;;13.60;99.90;;;;;;5073202;28;20438;-77
2022/10/16 00:32:42;;;;;;;0.60;0.57;;;13.60;99.90;;;;;;5073449;28;20885;-76
2022/10/16 00:35:09;;;;;;;0.70;0.70;;;13.60;99.90;;;;;;5072955;28;20552;-78
2022/10/16 00:37:36;;;;;;;6.23;1.23;;;13.60;99.90;;;;;;5072965;28;20432;-77
2022/10/16 00:40:03;;;;;;;0.70;0.70;;;13.60;99.90;;;;;;5073687;28;20464;-78
2022/10/16 00:42:30;;;;;;;1.00;0.70;;;13.60;99.90;;;;;;5073003;28;20440;-76
2022/10/16 00:44:58;;;;;;;0.50;0.50;;;13.60;99.90;;;;;;5072602;28;20571;-77
2022/10/16 00:47:29;;;;;;;0.60;0.60;;;13.60;99.90;;;;;;5072968;28;20804;-78
2022/10/16 00:50:02;;;;;;;0.87;0.87;;;13.60;99.90;;;;;;5073411;28;20876;-77
2022/10/16 00:52:29;;;;;;;0.50;0.40;;;13.60;99.90;;;;;;5072904;28;20454;-76
2022/10/16 00:54:57;;;;;;;0.83;0.83;;;13.60;99.90;;;;;;5072608;28;21036;-77
2022/10/16 00:57:25;;;;;;;0.50;0.30;;;13.60;99.90;;;;;;5073180;28;20447;-77
2022/10/16 00:59:53;;;;;;;0.50;0.30;;;13.60;99.90;;;;;;5072976;28;20446;-77
2022/10/16 01:02:19;;;;;;;0.50;0.40;;;13.50;99.90;;;;;;5073084;28;20522;-78
2022/10/16 01:04:52;;;;;;;0.50;0.40;;;13.60;99.90;;;;;;5072167;28;20476;-77
2022/10/16 01:07:31;;;;;;;0.57;0.50;;;13.60;99.90;;;;;;5072329;28;20483;-77
2022/10/16 01:10:10;;;;;;;0.50;0.50;;;13.60;99.90;;;;;;5072387;28;20482;-77
2022/10/16 01:12:42;;;;;;;0.50;0.40;;;13.50;99.90;;;;;;5072575;28;20430;-77
2022/10/16 01:15:15;;;;;;;0.83;0.70;;;13.50;99.90;;;;;;5072400;28;20456;-78
2022/10/16 01:17:46;;;;;;;0.50;0.40;;;13.50;99.90;;;;;;5072550;28;20459;-77
2022/10/16 01:20:25;;;;;;;2.40;2.30;;;13.50;99.90;;;;;;5072124;28;20448;-76
2022/10/16 01:23:05;;;;;;;0.50;0.33;;;13.50;99.90;;;;;;5072590;28;20833;-77
2022/10/16 01:25:40;;;;;;;0.50;0.30;;;13.40;99.90;;;;;;5072012;28;20456;-76
2022/10/16 01:28:12;;;;;;;0.50;0.30;;;13.30;99.90;;;;;;5072849;28;20424;-77
2022/10/16 01:30:42;;;;;;;0.50;0.30;;;13.30;99.90;;;;;;5072383;28;20428;-75
2022/10/16 01:33:15;;;;;;;0.70;0.70;;;13.30;99.90;;;;;;5072218;28;20436;-77
2022/10/16 01:35:46;;;;;;;0.50;0.30;;;13.30;99.90;;;;;;5072460;28;20470;-78
2022/10/16 01:38:18;;;;;;;0.50;0.40;;;13.30;99.90;;;;;;5072205;28;20868;-77
2022/10/16 01:40:50;;;;;;;0.53;0.53;;;13.30;99.90;;;;;;5072139;28;20485;-77
2022/10/16 01:43:22;;;;;;;0.53;0.50;;;13.20;99.90;;;;;;5071830;28;20439;-77
2022/10/16 01:45:50;;;;;;;0.57;0.57;;;13.10;99.90;;;;;;5071087;28;20566;-77
2022/10/16 01:48:20;;;;;;;0.50;0.40;;;13.10;99.90;;;;;;5071933;28;20436;-77
2022/10/16 01:51:04;;;;;;;0.50;0.30;;;13.10;99.90;;;;;;5072084;28;20818;-78
2022/10/16 01:53:32;;;;;;;0.50;0.40;;;13.20;99.90;;;;;;5072061;28;20825;-78
2022/10/16 01:56:01;;;;;;;0.50;0.40;;;13.20;99.90;;;;;;5071526;28;20530;-78
2022/10/16 01:58:34;;;;;;;0.50;0.30;;;13.20;99.90;;;;;;5071461;28;20446;-78
2022/10/16 02:01:02;;;;;;;0.50;0.40;;;13.20;99.90;;;;;;5071735;28;20455;-78
2022/10/16 02:03:29;;;;;;;0.50;0.33;;;13.20;99.90;;;;;;5071701;28;20436;-77
2022/10/16 02:05:58;;;;;;;0.50;0.40;;;13.20;99.90;;;;;;5071748;28;20440;-78
2022/10/16 02:08:28;;;;;;;1.53;0.90;;;13.30;99.90;;;;;;5070848;28;20960;-77
2022/10/16 02:10:56;;;;;;;0.60;0.50;;;13.30;99.90;;;;;;5071651;28;20447;-77
2022/10/16 02:13:28;;;;;;;0.50;0.40;;;13.30;99.90;;;;;;5071510;28;20444;-77
2022/10/16 02:15:56;;;;;;;0.50;0.40;;;13.30;99.90;;;;;;5071700;28;20424;-77
2022/10/16 02:18:26;;;;;;;0.50;0.40;;;13.20;99.90;;;;;;5071273;28;20436;-78
2022/10/16 02:20:58;;;;;;;0.50;0.40;;;13.20;99.90;;;;;;5071994;28;20487;-77
2022/10/16 02:23:30;;;;;;;0.50;0.40;;;13.20;99.90;;;;;;5071012;28;20449;-76
2022/10/16 02:26:02;;;;;;;0.77;0.77;;;13.20;99.90;;;;;;5071370;28;20485;-78
2022/10/16 02:28:36;;;;;;;0.50;0.40;;;13.20;99.90;;;;;;5071347;28;20440;-78
2022/10/16 02:31:09;;;;;;;0.50;0.40;;;13.20;99.90;;;;;;5071792;28;20522;-78
2022/10/16 02:33:38;;;;;;;0.50;0.40;;;13.20;99.90;;;;;;5071352;28;20440;-77
2022/10/16 02:36:05;;;;;;;0.60;0.60;;;13.20;99.90;;;;;;5070918;28;20523;-78
2022/10/16 02:38:33;;;;;;;1.07;0.60;;;13.20;99.90;;;;;;5071352;28;20438;-75
2022/10/16 02:41:00;;;;;;;0.50;0.40;;;13.30;99.90;;;;;;5071347;28;20870;-77
2022/10/16 02:43:27;;;;;;;0.50;0.40;;;13.30;99.90;;;;;;5071032;28;20439;-77
2022/10/16 02:45:54;;;;;;;0.93;0.93;;;13.30;99.90;;;;;;5071219;28;20559;-78
2022/10/16 02:48:22;;;;;;;0.70;0.70;;;13.30;99.90;;;;;;5071085;28;20450;-78
2022/10/16 02:50:49;;;;;;;0.50;0.40;;;13.40;99.90;;;;;;5071446;28;20531;-77
2022/10/16 02:53:15;;;;;;;1.57;1.47;;;13.40;99.90;;;;;;5071232;28;20872;-77
2022/10/16 02:55:42;;;;;;;0.73;0.70;;;13.40;99.90;;;;;;5070532;28;20484;-77
2022/10/16 02:58:09;;;;;;;0.50;0.40;;;13.50;99.90;;;;;;5071147;28;20527;-78
2022/10/16 03:00:36;;;;;;;0.50;0.30;;;13.50;99.90;;;;;;5070959;28;20535;-74
2022/10/16 03:03:03;;;;;;;0.50;0.30;;;13.40;99.90;;;;;;5071266;28;20527;-78
2022/10/16 03:05:31;;;;;;;0.63;0.63;;;13.40;99.90;;;;;;5070581;28;20472;-75
2022/10/16 03:08:00;;;;;;;0.83;0.83;;;13.40;99.90;;;;;;5070456;28;20443;-77
2022/10/16 03:10:26;;;;;;;0.50;0.40;;;13.50;99.90;;;;;;5070929;28;20527;-74
2022/10/16 03:12:53;;;;;;;0.60;0.50;;;13.50;99.90;;;;;;5070991;28;20448;-77
2022/10/16 03:15:20;;;;;;;0.50;0.40;;;13.50;99.90;;;;;;5070692;28;20458;-77
2022/10/16 03:17:47;;;;;;;2.83;1.73;;;13.50;99.90;;;;;;5071360;28;20531;-77
2022/10/16 03:20:14;;;;;;;0.50;0.40;;;13.50;99.90;;;;;;5071067;28;20821;-78
2022/10/16 03:22:42;;;;;;;0.50;0.40;;;13.50;99.90;;;;;;5071217;28;20784;-76
2022/10/16 03:25:09;;;;;;;0.50;0.30;;;13.50;99.90;;;;;;5070388;28;20491;-77
2022/10/16 03:27:36;;;;;;;0.60;0.50;;;13.50;99.90;;;;;;5071196;28;20440;-77
2022/10/16 03:30:03;;;;;;;0.50;0.40;;;13.40;99.90;;;;;;5073629;28;20450;-77
2022/10/16 03:32:30;;;;;;;0.50;0.40;;;13.40;99.90;;;;;;5075144;28;20440;-78
2022/10/16 03:34:57;;;;;;;0.70;0.70;;;13.50;99.90;;;;;;5073984;28;20452;-78
2022/10/16 03:37:24;;;;;;;0.50;0.40;;;13.50;99.90;;;;;;5074496;28;20876;-77
2022/10/16 03:39:53;;;;;;;0.53;0.37;;;13.40;99.90;;;;;;5074135;28;20454;-78
2022/10/16 03:42:19;;;;;;;0.50;0.30;;;13.50;99.90;;;;;;5074400;28;20518;-77
2022/10/16 03:44:46;;;;;;;0.87;0.40;;;13.50;99.90;;;;;;5073917;28;20490;-77
2022/10/16 03:47:13;;;;;;;0.50;0.30;;;13.40;99.90;;;;;;5074247;28;20880;-77
2022/10/16 03:49:40;;;;;;;0.50;0.40;;;13.40;99.90;;;;;;5074451;28;20872;-77
2022/10/16 03:52:07;;;;;;;0.50;0.40;;;13.50;99.90;;;;;;5074073;28;20444;-76
2022/10/16 03:54:34;;;;;;;0.50;0.40;;;13.40;99.90;;;;;;5073755;28;20459;-77
2022/10/16 03:57:02;;;;;;;0.50;0.50;;;13.30;99.90;;;;;;5074298;28;20451;-77
2022/10/16 03:59:28;;;;;;;0.70;0.60;;;13.30;99.90;;;;;;5073952;28;20448;-77
2022/10/16 04:01:55;;;;;;;0.73;0.73;;;13.30;99.90;;;;;;5073931;28;20442;-74
2022/10/16 04:04:22;;;;;;;0.70;0.60;;;13.30;99.90;;;;;;5063625;28;20476;-78
2022/10/16 04:06:49;;;;;;;0.50;0.40;;;13.20;99.90;;;;;;5062765;28;20437;-77
2022/10/16 04:09:16;;;;;;;0.50;0.40;;;13.10;99.90;;;;;;5053498;28;20436;-77
2022/10/16 04:11:43;;;;;;;0.83;0.63;;;13.00;99.90;;;;;;5062700;28;21037;-76
2022/10/16 04:14:11;;;;;;;0.50;0.30;;;13.00;99.90;;;;;;5073572;28;20815;-77
2022/10/16 04:16:38;;;;;;;0.50;0.40;;;13.00;99.90;;;;;;5073781;28;20852;-77
2022/10/16 04:19:04;;;;;;;1.10;1.00;;;13.00;99.90;;;;;;5073673;28;20446;-78
2022/10/16 04:21:31;;;;;;;1.17;1.17;;;13.00;99.90;;;;;;5073707;28;20446;-77
2022/10/16 04:23:58;;;;;;;1.33;1.23;;;13.10;99.90;;;;;;5072799;28;20844;-77
2022/10/16 04:26:25;;;;;;;3.07;2.93;;;13.00;99.90;;;;;;5073871;28;20575;-78
2022/10/16 04:28:52;;;;;;;1.37;1.37;;;13.00;99.90;;;;;;5073686;28;20436;-77
2022/10/16 04:31:20;;;;;;;0.50;0.30;;;13.00;99.90;;;;;;5073342;28;20532;-77
2022/10/16 04:33:47;;;;;;;0.70;0.70;;;13.00;99.90;;;;;;5073470;28;20456;-78
2022/10/16 04:36:14;;;;;;;0.50;0.37;;;13.00;99.90;;;;;;5072933;28;20515;-77
2022/10/16 04:38:41;;;;;;;0.50;0.40;;;13.00;99.90;;;;;;5073467;28;20450;-77
2022/10/16 04:41:08;;;;;;;1.13;0.60;;;13.00;99.90;;;;;;5073362;28;20436;-77
2022/10/16 04:43:36;;;;;;;0.50;0.40;;;12.90;99.90;;;;;;5073213;28;20443;-77
2022/10/16 04:46:04;;;;;;;0.50;0.40;;;12.90;99.90;;;;;;5072651;28;20457;-77
2022/10/16 04:48:38;;;;;;;0.50;0.40;;;12.90;99.90;;;;;;5073989;28;20432;-74
2022/10/16 04:51:05;;;;;;;0.50;0.40;;;12.90;99.90;;;;;;5073101;28;20446;-77
2022/10/16 04:53:33;;;;;;;0.60;0.60;;;12.80;99.90;;;;;;5072839;28;20462;-77
2022/10/16 04:56:00;;;;;;;0.50;0.50;;;12.80;99.90;;;;;;5073000;28;20445;-77
2022/10/16 04:58:26;;;;;;;0.50;0.40;;;12.80;99.90;;;;;;5073042;28;20515;-77
2022/10/16 05:00:54;;;;;;;0.50;0.40;;;12.80;99.90;;;;;;5072292;28;20454;-75
2022/10/16 05:03:21;;;;;;;0.60;0.50;;;12.80;99.90;;;;;;5072859;28;20444;-78
2022/10/16 05:05:49;;;;;;;0.50;0.40;;;12.80;99.90;;;;;;5072499;28;20475;-78
2022/10/16 05:08:17;;;;;;;0.50;0.40;;;12.80;99.90;;;;;;5072230;28;20444;-77
2022/10/16 05:10:45;;;;;;;0.67;0.40;;;12.80;99.90;;;;;;5072477;28;20436;-78
2022/10/16 05:13:12;;;;;;;0.50;0.40;;;12.80;99.90;;;;;;5072918;28;20462;-77
2022/10/16 05:15:39;;;;;;;0.50;0.40;;;12.80;99.90;;;;;;5072338;28;20475;-77
2022/10/16 05:18:06;;;;;;;0.50;0.40;;;12.80;99.90;;;;;;5072656;28;20436;-77
2022/10/16 05:20:33;;;;;;;0.50;0.40;;;12.80;99.90;;;;;;5072312;28;20436;-78
2022/10/16 05:23:01;;;;;;;0.50;0.40;;;12.80;99.90;;;;;;5072106;28;20941;-77
2022/10/16 05:25:28;;;;;;;0.50;0.40;;;12.80;99.90;;;;;;5071825;28;20591;-76
2022/10/16 05:27:55;;;;;;;0.50;0.40;;;12.90;99.90;;;;;;5072336;28;20443;-77
2022/10/16 05:30:22;;;;;;;0.50;0.40;;;12.90;99.90;;;;;;5072193;28;20497;-77
2022/10/16 05:32:49;;;;;;;0.67;0.67;;;12.90;99.90;;;;;;5072140;28;20444;-77
2022/10/16 05:35:17;;;;;;;0.50;0.40;;;12.90;99.90;;;;;;5071844;28;20448;-77
2022/10/16 05:37:44;;;;;;;0.50;0.40;;;12.90;99.90;;;;;;5072147;28;20968;-78
2022/10/16 05:40:13;;;;;;;0.83;0.60;;;12.90;99.90;;;;;;5072039;28;20442;-77
2022/10/16 05:42:40;;;;;;;0.90;0.60;;;12.90;99.90;;;;;;5071877;28;20440;-74
2022/10/16 05:45:09;;;;;;;1.27;0.50;;;12.90;99.90;;;;;;5071438;28;20865;-77
2022/10/16 05:47:36;;;;;;;0.60;0.40;;;12.90;99.90;;;;;;5072140;28;20444;-77
2022/10/16 05:50:03;;;;;;;0.93;0.60;;;12.90;99.90;;;;;;5071504;28;20937;-76
2022/10/16 05:52:30;;;;;;;1.07;0.97;;;12.90;99.90;;;;;;5071338;28;20950;-77
2022/10/16 05:54:57;;;;;;;0.50;0.40;;;13.00;99.90;;;;;;5071563;28;20454;-78
2022/10/16 05:57:25;;;;;;;0.50;0.40;;;13.00;99.90;;;;;;5072430;28;20532;-77
2022/10/16 05:59:52;;;;;;;0.60;0.50;;;13.00;99.90;;;;;;5071844;28;20964;-77
2022/10/16 06:02:19;;;;;;;0.50;0.40;;;13.00;99.90;;;;;;5071422;28;20444;-77
2022/10/16 06:04:46;;;;;;;0.53;0.50;;;13.00;99.90;;;;;;5071331;28;20466;-77
2022/10/16 06:07:13;;;;;;;0.50;0.40;;;13.00;99.90;;;;;;5072168;28;20443;-77
2022/10/16 06:09:39;;;;;;;0.50;0.40;;;13.00;99.90;;;;;;5071293;28;20800;-77
2022/10/16 06:12:06;;;;;;;0.50;0.40;;;12.90;99.90;;;;;;5071543;28;20539;-76
2022/10/16 06:14:34;;;;;;;4.83;0.90;;;13.00;99.90;;;;;;5071556;28;20973;-77
2022/10/16 06:17:01;;;;;;;0.50;0.40;;;13.00;99.90;;;;;;5071286;28;20438;-77
2022/10/16 06:19:28;;;;;;;3.30;2.50;;;13.00;99.90;;;;;;5071779;28;20439;-77
2022/10/16 06:21:55;;;;;;;0.50;0.40;;;13.00;99.90;;;;;;5071465;28;20444;-78
2022/10/16 06:24:21;;;;;;;0.70;0.70;;;13.00;99.90;;;;;;5071573;28;20532;-78
2022/10/16 06:26:48;;;;;;;0.80;0.80;;;13.10;99.90;;;;;;5071305;28;20477;-77
2022/10/16 06:29:15;;;;;;;0.50;0.50;;;13.10;99.90;;;;;;5071420;28;20448;-77
2022/10/16 06:31:43;;;;;;;0.50;0.40;;;13.10;99.90;;;;;;5071232;28;20440;-78
2022/10/16 06:34:11;;;;;;;0.60;0.60;;;13.10;99.90;;;;;;5071369;28;20456;-77
2022/10/16 06:36:39;;;;;;;0.60;0.40;;;13.20;99.90;;;;;;5071607;28;20439;-77
2022/10/16 06:39:07;;;;;;;0.50;0.50;;;13.20;99.90;;;;;;5071439;28;20436;-78
2022/10/16 06:41:35;;;;;;;0.80;0.60;;;13.30;99.90;;;;;;5071321;28;20436;-77
2022/10/16 06:44:01;;;;;;;0.50;0.40;;;13.30;99.90;;;;;;5070748;28;20490;-76
2022/10/16 06:46:29;;;;;;;0.90;0.60;;;13.40;99.90;;;;;;5071116;28;20865;-77
2022/10/16 06:48:57;;;;;;;6.07;1.10;;;13.50;99.90;;;;;;5071139;28;20428;-77
2022/10/16 06:51:25;;;;;;;0.83;0.83;;;13.60;99.90;;;;;;5071473;28;20440;-78
2022/10/16 06:53:53;;;;;;;1.40;0.53;;;13.60;99.90;;;;;;5070454;28;20525;-75
2022/10/16 06:56:22;;;;;;;0.50;0.40;;;13.70;99.90;;;;;;5071178;28;20444;-78
2022/10/16 06:58:49;;;;;;;2.93;0.70;;;13.70;99.90;;;;;;5071211;28;20444;-77
2022/10/16 07:01:18;;;;;;;0.60;0.40;;;13.70;99.90;;;;;;5071121;28;20539;-77
2022/10/16 07:03:46;;;;;;;4.23;1.90;;;13.70;99.90;;;;;;5072316;28;20451;-76
2022/10/16 07:06:17;;;;;;;0.60;0.50;;;13.80;99.90;;;;;;5074870;28;20474;-76
2022/10/16 07:08:45;;;;;;;0.97;0.70;;;13.70;99.90;;;;;;5074652;28;20440;-76
2022/10/16 07:11:14;;;;;;;0.60;0.60;;;13.70;99.90;;;;;;5075241;28;20440;-76
2022/10/16 07:13:43;;;;;;;0.70;0.40;;;13.80;99.90;;;;;;5074908;28;20472;-77
2022/10/16 07:16:11;;;;;;;0.50;0.40;;;13.90;99.90;;;;;;5074716;28;20934;-77
2022/10/16 07:18:40;;;;;;;0.87;0.87;;;13.90;99.90;;;;;;5074931;28;20432;-76
2022/10/16 07:21:08;;;;;;;0.50;0.30;;;13.80;99.90;;;;;;5075132;28;20452;-77
2022/10/16 07:23:36;;;;;;;1.07;0.90;;;13.80;99.90;;;;;;5074640;28;20817;-77
2022/10/16 07:26:03;;;;;;;1.00;0.80;;;13.70;99.90;;;;;;5074192;28;20464;-77
2022/10/16 07:28:31;;;;;;;0.60;0.57;;;13.70;99.90;;;;;;5074533;28;20821;-77
2022/10/16 07:31:01;;;;;;;0.50;0.40;;;13.80;99.90;;;;;;5074489;28;20447;-77
2022/10/16 07:33:29;;;;;;;0.50;0.40;;;13.90;99.90;;;;;;5074107;28;20799;-74
2022/10/16 07:35:56;;;;;;;1.10;1.00;;;14.00;99.90;;;;;;5074565;28;20448;-77
2022/10/16 07:38:23;;;;;;;0.53;0.53;;;14.20;99.90;;;;;;5074593;28;20440;-77
2022/10/16 07:40:57;;;;;;;0.87;0.87;;;14.40;99.90;;;;;;5074133;28;20440;-76
2022/10/16 07:43:24;;;;;;;0.50;0.30;;;14.60;99.90;;;;;;5074201;28;20771;-76
2022/10/16 07:45:51;;;;;;;0.60;0.53;;;14.90;99.90;;;;;;5073783;28;20856;-77
2022/10/16 07:48:19;;;;;;;2.10;0.97;;;15.70;99.90;;;;;;5074505;28;20519;-77
2022/10/16 07:50:46;;;;;;;1.47;1.37;;;16.50;99.90;;;;;;5074483;28;20440;-77
2022/10/16 07:53:13;;;;;;;0.50;0.40;;;17.50;99.90;;;;;;5074226;28;20442;-77
2022/10/16 07:55:40;;;;;;;0.50;0.40;;;18.50;99.90;;;;;;5073864;28;20837;-77
2022/10/16 07:58:09;;;;;;;0.70;0.70;;;19.00;99.90;;;;;;5073772;28;20436;-77
2022/10/16 08:00:37;;;;;;;1.00;0.47;;;19.70;99.90;;;;;;5073983;28;20976;-76
2022/10/16 08:03:04;;;;;;;1.00;0.80;;;20.60;99.90;;;;;;5073892;28;20436;-76
2022/10/16 08:05:33;;;;;;;0.80;0.60;;;21.00;99.90;;;;;;5073559;28;20486;-73
2022/10/16 08:08:00;;;;;;;0.50;0.40;;;21.30;99.90;;;;;;5073060;28;20442;-77
2022/10/16 08:10:28;;;;;;;0.50;0.30;;;21.60;99.90;;;;;;5074186;28;20442;-77
2022/10/16 08:12:55;;;;;;;0.60;0.50;;;21.90;99.90;;;;;;5074018;28;20531;-77
2022/10/16 08:15:24;;;;;;;0.80;0.70;;;22.30;99.90;;;;;;5072772;28;20471;-76
2022/10/16 08:17:58;;;;;;;0.50;0.30;;;22.50;99.90;;;;;;5073678;28;20432;-77
2022/10/16 08:20:26;;;;;;;4.00;0.50;;;23.10;99.90;;;;;;5073523;28;20469;-76
2022/10/16 08:22:53;;;;;;;0.70;0.70;;;23.50;99.90;;;;;;5073541;28;20440;-77
2022/10/16 08:25:21;;;;;;;0.50;0.40;;;23.90;99.90;;;;;;5073046;28;21072;-75
2022/10/16 08:27:47;;;;;;;0.50;0.40;;;24.30;99.90;;;;;;5073070;28;20447;-76
2022/10/16 08:30:15;;;;;;;0.53;0.40;;;24.30;99.90;;;;;;5073488;28;20967;-76
2022/10/16 08:32:43;;;;;;;0.50;0.40;;;24.40;99.90;;;;;;5073757;28;20531;-73
2022/10/16 08:35:11;;;;;;;1.20;0.73;;;24.20;99.90;;;;;;5073408;28;20531;-76
2022/10/16 08:37:38;;;;;;;0.90;0.57;;;24.50;99.90;;;;;;5073371;28;20754;-75
2022/10/16 08:40:07;;;;;;;0.60;0.40;;;24.00;99.90;;;;;;5073196;28;20522;-77
2022/10/16 08:42:48;;;;;;;2.00;0.50;;;23.30;99.90;;;;;;5073267;28;20626;-77
2022/10/16 08:45:36;;;;;;;0.60;0.50;;;23.00;99.90;;;;;;5072688;28;20463;-77
2022/10/16 08:48:18;;;;;;;0.83;0.83;;;23.70;99.90;;;;;;5073178;28;20413;-76
2022/10/16 08:50:46;;;;;;;0.50;0.30;;;24.10;99.90;;;;;;5073437;28;20451;-76
2022/10/16 08:53:19;;;;;;;0.60;0.40;;;25.20;99.90;;;;;;5072823;28;20432;-77
2022/10/16 08:55:50;;;;;;;0.60;0.50;;;25.20;99.90;;;;;;5072902;28;20837;-76
2022/10/16 08:58:19;;;;;;;0.50;0.40;;;24.20;99.90;;;;;;5073053;28;20420;-76
2022/10/16 09:00:49;;;;;;;0.50;0.40;;;23.70;99.90;;;;;;5073141;28;20527;-77
2022/10/16 09:03:33;;;;;;;1.37;0.90;;;24.40;99.90;;;;;;5072923;28;20439;-75
2022/10/16 09:06:14;;;;;;;0.60;0.40;;;24.90;99.90;;;;;;5072519;28;20997;-77
2022/10/16 09:08:49;;;;;;;0.50;0.40;;;24.00;99.90;;;;;;5072250;28;21028;-76
2022/10/16 09:11:26;;;;;;;1.53;1.43;;;23.90;99.90;;;;;;5072559;28;20440;-77
2022/10/16 09:13:58;;;;;;;0.50;0.40;;;23.50;99.90;;;;;;5072412;28;20460;-76
2022/10/16 09:16:31;;;;;;;0.50;0.30;;;22.60;99.90;;;;;;5072651;28;20504;-77
2022/10/16 09:19:05;;;;;;;0.50;0.40;;;22.30;99.90;;;;;;5072931;28;20436;-76
2022/10/16 09:21:36;;;;;;;0.60;0.40;;;21.70;99.90;;;;;;5072002;28;20446;-76
2022/10/16 09:24:12;;;;;;;0.60;0.60;;;20.80;99.90;;;;;;5072146;28;20826;-76
2022/10/16 09:26:39;;;;;;;0.70;0.60;;;20.00;99.90;;;;;;5071407;28;20818;-76
2022/10/16 09:29:06;;;;;;;0.60;0.40;;;19.70;99.90;;;;;;5071975;28;20440;-77
2022/10/16 09:31:36;;;;;;;0.50;0.30;;;19.50;99.90;;;;;;5072072;28;20447;-76
2022/10/16 09:34:06;;;;;;;0.50;0.40;;;19.60;99.90;;;;;;5072108;28;20470;-76
2022/10/16 09:36:40;;;;;;;0.50;0.43;;;19.60;99.90;;;;;;5072199;28;20957;-73
2022/10/16 09:39:09;;;;;;;0.50;0.30;;;19.30;99.90;;;;;;5071495;28;20817;-75
2022/10/16 09:41:39;;;;;;;0.60;0.40;;;19.00;99.90;;;;;;5072362;28;20443;-76
2022/10/16 09:44:17;;;;;;;0.50;0.50;;;18.70;99.90;;;;;;5071313;28;20559;-77
2022/10/16 09:46:44;;;;;;;0.50;0.37;;;18.50;99.90;;;;;;5072374;28;20458;-76
2022/10/16 09:49:24;;;;;;;0.50;0.40;;;18.40;99.90;;;;;;5071957;28;20527;-76
2022/10/16 09:51:53;;;;;;;0.50;0.30;;;18.30;99.90;;;;;;5071585;28;20523;-76
2022/10/16 09:54:21;;;;;;;0.50;0.50;;;18.30;99.90;;;;;;5071181;28;20554;-77
2022/10/16 09:56:53;;;;;;;0.60;0.40;;;18.20;99.90;;;;;;5071862;28;20463;-76
2022/10/16 09:59:23;;;;;;;0.50;0.40;;;18.40;99.90;;;;;;5071359;28;20482;-76
2022/10/16 10:01:51;;;;;;;0.50;0.33;;;18.40;99.90;;;;;;5071940;28;20975;-76
2022/10/16 10:04:21;;;;;;;0.50;0.30;;;18.70;99.90;;;;;;5071279;28;20464;-75
2022/10/16 10:06:51;;;;;;;1.37;0.50;;;18.70;99.90;;;;;;5071554;28;20472;-74
2022/10/16 10:09:20;;;;;;;0.50;0.33;;;18.80;99.90;;;;;;5071253;28;20778;-77
2022/10/16 10:11:55;;;;;;;0.60;0.60;;;19.00;99.90;;;;;;5071684;28;20888;-76
2022/10/16 10:14:26;;;;;;;0.50;0.30;;;19.40;99.90;;;;;;5070843;28;20974;-77
2022/10/16 10:17:02;;;;;;;0.50;0.40;;;19.80;99.90;;;;;;5071970;28;20424;-76
2022/10/16 10:19:30;;;;;;;0.50;0.40;;;19.80;99.90;;;;;;5071424;28;20420;-77
2022/10/16 10:21:57;;;;;;;0.50;0.40;;;19.40;99.90;;;;;;5071161;28;20538;-76
2022/10/16 10:24:24;;;;;;;0.50;0.40;;;19.10;99.90;;;;;;5070621;28;20491;-77
2022/10/16 10:27:00;;;;;;;0.50;0.30;;;18.60;99.90;;;;;;5071416;28;20482;-75
2022/10/16 10:29:47;;;;;;;0.50;0.40;;;18.60;99.90;;;;;;5071378;28;20426;-76
2022/10/16 10:32:26;;;;;;;0.50;0.40;;;18.50;99.90;;;;;;5071786;28;20444;-76
2022/10/16 10:35:03;;;;;;;0.50;0.30;;;18.60;99.90;;;;;;5070650;28;20830;-77
2022/10/16 10:37:49;;;;;;;0.50;0.30;;;18.90;99.90;;;;;;5071234;28;20902;-77
2022/10/16 10:40:28;;;;;;;0.50;0.40;;;19.60;99.90;;;;;;5070994;28;20439;-76
2022/10/16 10:43:02;;;;;;;0.50;0.33;;;20.60;99.90;;;;;;5071341;28;20821;-76
2022/10/16 10:45:38;;;;;;;0.50;0.40;;;21.40;99.90;;;;;;5070911;28;20999;-77
2022/10/16 10:48:22;;;;;;;0.50;0.30;;;21.70;99.90;;;;;;5070963;28;20993;-76
2022/10/16 10:50:56;;;;;;;0.50;0.30;;;21.90;99.90;;;;;;5071578;28;20454;-77
2022/10/16 10:53:34;;;;;;;0.50;0.30;;;21.70;99.90;;;;;;5071113;28;20801;-76
2022/10/16 10:56:12;;;;;;;0.73;0.40;;;22.50;99.90;;;;;;5068369;22;20966;-78
2022/10/16 10:58:57;;;;;;;0.53;0.37;;;23.10;99.90;;;;;;5040132;28;20438;-76
2022/10/16 11:01:32;;;;;;;0.70;0.70;;;23.50;99.90;;;;;;5049757;28;20429;-77
2022/10/16 11:04:27;;;;;;;0.50;0.30;;;23.40;99.90;;;;;;5060614;28;20448;-76
2022/10/16 11:06:59;;;;;;;0.50;0.40;;;23.90;99.90;;;;;;5050627;28;20469;-77
2022/10/16 11:09:29;;;;;;;2.90;0.93;;;24.60;99.90;;;;;;5050506;28;20440;-75
2022/10/16 11:12:01;;;;;;;0.50;0.40;;;25.30;99.40;;;;;;5050805;28;20430;-76
2022/10/16 11:14:34;;;;;;;0.50;0.33;;;25.30;96.60;;;;;;5050838;28;20429;-77
2022/10/16 11:17:08;;;;;;;0.50;0.30;;;25.20;98.10;;;;;;5050971;28;20511;-76
2022/10/16 11:19:42;;;;;;;0.50;0.30;;;25.10;95.80;;;;;;5051171;28;20436;-78
2022/10/16 11:22:17;;;;;;;0.60;0.60;;;24.40;95.10;;;;;;5050869;28;20440;-77
2022/10/16 11:24:48;;;;;;;0.50;0.30;;;24.00;99.00;;;;;;5050540;28;20460;-78
2022/10/16 11:27:18;;;;;;;0.50;0.30;;;22.70;99.90;;;;;;5050692;28;20473;-78
2022/10/16 11:29:54;;;;;;;0.70;0.60;;;21.90;99.90;;;;;;5050932;28;20929;-78
2022/10/16 11:32:26;;;;;;;0.50;0.30;;;21.40;99.90;;;;;;5050241;28;20540;-77
2022/10/16 11:34:58;;;;;;;0.70;0.50;;;21.30;99.90;;;;;;5050432;28;20458;-78
2022/10/16 11:37:31;;;;;;;0.50;0.30;;;21.40;99.90;;;;;;5050909;28;20433;-77
2022/10/16 11:40:04;;;;;;;0.60;0.50;;;21.20;99.90;;;;;;5050668;28;20448;-76
2022/10/16 11:42:38;;;;;;;0.50;0.30;;;21.10;99.90;;;;;;5050667;28;20461;-74
2022/10/16 11:45:17;;;;;;;1.27;0.83;;;20.60;99.90;;;;;;5050541;28;20969;-78
2022/10/16 11:47:46;;;;;;;1.30;0.60;;;20.20;99.90;;;;;;5050620;28;20537;-78
2022/10/16 11:50:23;;;;;;;0.50;0.40;;;20.10;99.90;;;;;;5052397;28;20440;-78
2022/10/16 11:53:02;;;;;;;0.50;0.30;;;20.10;99.90;;;;;;5053795;28;21056;-78
2022/10/16 11:55:35;;;;;;;0.50;0.40;;;20.60;99.90;;;;;;5053487;28;20551;-78
2022/10/16 11:58:06;;;;;;;0.50;0.30;;;21.10;99.90;;;;;;5054356;28;20424;-78
2022/10/16 12:00:41;;;;;;;0.50;0.30;;;21.30;99.90;;;;;;5054514;28;20448;-76
2022/10/16 12:03:16;;;;;;;0.77;0.57;;;21.30;99.90;;;;;;5054012;28;20433;-78
2022/10/16 12:05:58;;;;;;;0.50;0.30;;;21.10;99.90;;;;;;5053459;28;20456;-78
2022/10/16 12:08:27;;;;;;;0.50;0.40;;;21.10;99.90;;;;;;5053231;28;20463;-78
2022/10/16 12:10:55;;;;;;;0.50;0.30;;;21.30;99.90;;;;;;5054131;28;20867;-78
2022/10/16 12:13:32;;;;;;;0.50;0.40;;;21.30;99.90;;;;;;5053993;28;20604;-78
2022/10/16 12:16:07;;;;;;;0.50;0.40;;;21.20;99.90;;;;;;5053348;28;20997;-77
2022/10/16 12:18:34;;;;;;;0.50;0.30;;;20.70;99.90;;;;;;5053497;28;20914;-78
2022/10/16 12:21:05;;;;;;;0.50;0.30;;;20.40;99.90;;;;;;5053714;28;20448;-78
2022/10/16 12:23:37;;;;;;;0.50;0.40;;;20.30;99.90;;;;;;5053827;28;20425;-78
2022/10/16 12:26:05;;;;;;;0.50;0.30;;;20.40;99.90;;;;;;5053350;28;20467;-76
2022/10/16 12:28:34;;;;;;;0.50;0.33;;;20.50;99.90;;;;;;5053005;28;20499;-77
2022/10/16 12:31:03;;;;;;;0.60;0.60;;;20.40;99.90;;;;;;5053705;28;20444;-78
2022/10/16 12:33:32;;;;;;;0.50;0.40;;;20.30;99.90;;;;;;5053133;28;20484;-78
2022/10/16 12:36:02;;;;;;;1.47;0.97;;;20.20;99.90;;;;;;5053162;28;20871;-78
2022/10/16 12:38:32;;;;;;;0.50;0.30;;;20.10;99.90;;;;;;5053079;28;20516;-78
2022/10/16 12:41:09;;;;;;;0.50;0.30;;;20.20;99.90;;;;;;5053024;28;20441;-78
2022/10/16 12:43:42;;;;;;;0.50;0.40;;;20.40;99.90;;;;;;5053387;28;20512;-78
2022/10/16 12:46:38;;;;;;;7.93;7.63;;;20.70;99.90;;;;;;5052715;28;20453;-76
2022/10/16 12:49:24;;;;;;;0.73;0.63;;;21.00;99.90;;;;;;5053184;28;20519;-76
2022/10/16 12:51:51;;;;;;;0.60;0.50;;;21.20;99.90;;;;;;5053592;28;20752;-77
2022/10/16 12:54:20;;;;;;;0.50;0.40;;;21.50;99.90;;;;;;5052897;28;20433;-76
2022/10/16 12:56:59;;;;;;;0.60;0.40;;;22.20;99.90;;;;;;5052276;28;20445;-76
2022/10/16 12:59:36;;;;;;;0.50;0.30;;;22.30;99.90;;;;;;5052985;28;20452;-73
2022/10/16 13:02:20;;;;;;;0.50;0.30;;;22.20;99.90;;;;;;5052914;28;20813;-75